Time;durP1;ratioP1;P1;durP2;ratioP2;P2;SDS_P1;SDS_P2;PMS_P1;PMS_P2;Temp;Humidity;BMP_temperature;BMP_pressure;BME280_temperature;BME280_humidity;BME280_pressure;Samples;Min_cycle;Max_cycle;Signal;HPM_P1;HPM_P2
2021/09/21 00:02:20;;;;;;;8.15;6.65;;;;;;;10.98;100.00;101686.09;2614697;36;20164;-54
2021/09/21 00:04:47;;;;;;;11.68;7.22;;;;;;;10.97;100.00;101685.25;2616587;31;20442;-55
2021/09/21 00:07:14;;;;;;;9.45;7.05;;;;;;;10.96;100.00;101683.50;2614906;31;20578;-51
2021/09/21 00:09:41;;;;;;;9.68;7.20;;;;;;;10.94;100.00;101679.97;2615373;31;20030;-51
2021/09/21 00:12:08;;;;;;;8.75;6.75;;;;;;;10.94;100.00;101678.28;2614737;31;20030;-51
2021/09/21 00:14:37;;;;;;;10.93;6.65;;;;;;;10.93;100.00;101680.78;2614762;31;20030;-53
2021/09/21 00:17:04;;;;;;;12.02;6.18;;;;;;;10.92;100.00;101681.63;2614370;36;20039;-49
2021/09/21 00:19:32;;;;;;;12.20;7.28;;;;;;;10.91;100.00;101682.44;2614800;36;20908;-52
2021/09/21 00:22:00;;;;;;;9.07;7.07;;;;;;;10.90;100.00;101678.97;2614958;31;20030;-52
2021/09/21 00:24:28;;;;;;;10.05;7.03;;;;;;;10.86;100.00;101687.38;2615443;31;20916;-50
2021/09/21 00:26:55;;;;;;;10.05;6.78;;;;;;;10.87;100.00;101684.00;2614666;36;20034;-49
2021/09/21 00:29:23;;;;;;;10.75;6.90;;;;;;;10.86;100.00;101697.63;2614545;36;20058;-49
2021/09/21 00:32:00;;;;;;;12.57;7.07;;;;;;;10.83;100.00;101689.81;2614822;36;20034;-54
2021/09/21 00:34:37;;;;;;;9.75;6.55;;;;;;;10.83;100.00;101687.25;2614633;36;20033;-50
2021/09/21 00:37:13;;;;;;;10.77;7.15;;;;;;;10.83;100.00;101687.25;2614827;31;20100;-55
2021/09/21 00:39:41;;;;;;;10.77;7.38;;;;;;;10.83;100.00;101683.81;2578577;36;2004376;-50
2021/09/21 00:42:08;;;;;;;11.57;7.30;;;;;;;10.80;100.00;101676.84;2614380;31;20030;-48
2021/09/21 00:44:36;;;;;;;12.05;7.28;;;;;;;10.81;100.00;101678.59;2614612;36;20034;-50
2021/09/21 00:47:09;;;;;;;10.50;6.65;;;;;;;10.79;100.00;101677.69;2615109;31;20058;-49
2021/09/21 00:49:37;;;;;;;9.60;6.65;;;;;;;10.78;100.00;101678.50;2578545;31;2004729;-48
2021/09/21 00:52:04;;;;;;;11.60;6.85;;;;;;;10.77;100.00;101671.63;2615054;31;20031;-53
2021/09/21 00:54:31;;;;;;;12.63;7.53;;;;;;;10.77;100.00;101674.19;2615246;31;20569;-50
2021/09/21 00:56:59;;;;;;;9.50;7.10;;;;;;;10.76;100.00;101672.41;2614463;36;20061;-51
2021/09/21 00:59:26;;;;;;;10.75;7.50;;;;;;;10.74;100.00;101671.50;2614591;36;20035;-50
2021/09/21 01:02:07;;;;;;;13.70;7.72;;;;;;;10.73;100.00;101672.31;2576915;31;2004467;-48
2021/09/21 01:04:36;;;;;;;13.80;7.88;;;;;;;10.71;100.00;101673.94;2613322;36;20125;-51
2021/09/21 01:07:04;;;;;;;10.02;7.45;;;;;;;10.66;100.00;101672.88;2613038;36;20904;-50
2021/09/21 01:09:31;;;;;;;11.65;7.47;;;;;;;10.64;100.00;101677.94;2613228;31;20057;-49
2021/09/21 01:12:00;;;;;;;11.02;7.72;;;;;;;10.63;100.00;101682.97;2612921;31;20034;-52
2021/09/21 01:14:27;;;;;;;13.38;7.80;;;;;;;10.61;100.00;101687.16;2612943;36;20484;-53
2021/09/21 01:16:55;;;;;;;11.20;7.32;;;;;;;10.60;100.00;101685.44;2612832;31;20034;-54
2021/09/21 01:19:23;;;;;;;11.90;8.20;;;;;;;10.60;100.00;101688.84;2613451;36;20163;-51
2021/09/21 01:21:51;;;;;;;11.80;7.47;;;;;;;10.59;100.00;101686.25;2613222;36;20472;-52
2021/09/21 01:24:19;;;;;;;11.85;8.38;;;;;;;10.57;100.00;101691.28;2613240;31;20057;-47
2021/09/21 01:26:47;;;;;;;11.43;7.18;;;;;;;10.57;100.00;101677.59;2612721;36;20049;-50
2021/09/21 01:29:15;;;;;;;10.50;7.55;;;;;;;10.57;100.00;101681.03;2612930;36;20034;-52
2021/09/21 01:31:42;;;;;;;9.38;6.88;;;;;;;10.55;100.00;101687.81;2613357;31;20645;-50
2021/09/21 01:34:16;;;;;;;11.02;8.38;;;;;;;10.52;100.00;101681.66;2614873;31;20065;-51
2021/09/21 01:36:43;;;;;;;11.30;7.97;;;;;;;10.51;100.00;101696.16;2614376;36;20042;-51
2021/09/21 01:39:11;;;;;;;12.38;7.72;;;;;;;10.51;100.00;101691.03;2614441;36;20030;-48
2021/09/21 01:41:38;;;;;;;12.55;8.25;;;;;;;10.52;100.00;101694.47;2614480;31;20038;-47
2021/09/21 01:44:05;;;;;;;10.40;7.57;;;;;;;10.49;100.00;101700.31;2614988;31;20579;-48
2021/09/21 01:46:32;;;;;;;14.25;8.15;;;;;;;10.48;100.00;101693.47;2614398;36;20065;-48
2021/09/21 01:48:59;;;;;;;9.70;8.15;;;;;;;10.50;100.00;101694.41;2615368;31;20030;-52
2021/09/21 01:51:32;;;;;;;13.90;7.45;;;;;;;10.49;100.00;101691.78;2614105;36;20035;-47
2021/09/21 01:59:28;;;;;;;11.70;8.70;;;;;;;10.50;100.00;101696.97;2615216;31;20038;-50
2021/09/21 02:01:55;;;;;;;10.73;7.72;;;;;;;10.49;100.00;101692.63;2613986;36;20061;-47
2021/09/21 02:04:23;;;;;;;11.80;9.50;;;;;;;10.50;100.00;101696.09;2614813;31;20093;-54
2021/09/21 02:06:52;;;;;;;15.57;8.85;;;;;;;10.49;100.00;101700.31;2614775;31;20026;-52
2021/09/21 02:09:19;;;;;;;12.93;9.00;;;;;;;10.49;100.00;101692.63;2616029;31;20638;-52
2021/09/21 02:11:46;;;;;;;11.90;8.73;;;;;;;10.49;100.00;101696.88;2614980;31;20556;-49
2021/09/21 02:14:15;;;;;;;11.98;8.55;;;;;;;10.49;100.00;101691.78;2615266;31;20031;-51
2021/09/21 02:16:43;;;;;;;10.57;7.68;;;;;;;10.48;100.00;101696.03;2614726;31;20041;-48
2021/09/21 02:19:11;;;;;;;12.13;8.50;;;;;;;10.48;100.00;101690.91;2615428;31;20046;-50
2021/09/21 02:21:42;;;;;;;14.52;8.32;;;;;;;10.44;100.00;101687.34;2614392;36;20065;-52
2021/09/21 02:24:12;;;;;;;11.93;9.52;;;;;;;10.45;100.00;101688.22;2614793;31;20141;-52
2021/09/21 02:26:47;;;;;;;14.70;9.43;;;;;;;10.44;100.00;101692.47;2615507;31;20037;-54
2021/09/21 02:29:18;;;;;;;12.73;8.60;;;;;;;10.44;100.00;101694.13;2615760;31;20419;-52
2021/09/21 02:31:47;;;;;;;11.57;8.05;;;;;;;10.43;100.00;101694.97;2613696;36;20103;-48
2021/09/21 02:34:18;;;;;;;11.20;8.52;;;;;;;10.42;100.00;101688.09;2614335;36;20545;-49
2021/09/21 02:36:47;;;;;;;13.40;8.60;;;;;;;10.40;100.00;101694.84;2613711;31;20569;-50
2021/09/21 02:39:17;;;;;;;15.68;9.40;;;;;;;10.40;100.00;101698.28;2614666;36;20159;-52
2021/09/21 02:41:48;;;;;;;13.07;8.68;;;;;;;10.40;100.00;101692.28;2615138;36;20458;-51
2021/09/21 02:44:21;;;;;;;12.15;8.25;;;;;;;10.39;100.00;101688.81;2614876;31;20030;-48
2021/09/21 02:46:51;;;;;;;14.48;9.77;;;;;;;10.39;100.00;101693.06;2614158;31;20554;-51
2021/09/21 02:49:20;;;;;;;14.60;9.85;;;;;;;10.39;100.00;101693.94;2614801;31;20086;-53
2021/09/21 02:51:49;;;;;;;11.93;8.45;;;;;;;10.37;100.00;101697.25;2614023;31;20058;-51
2021/09/21 02:54:21;;;;;;;16.83;8.73;;;;;;;10.35;100.00;101697.22;2614747;36;20133;-51
2021/09/21 02:56:53;;;;;;;12.27;8.90;;;;;;;10.36;100.00;101691.28;2615023;31;20061;-50
2021/09/21 02:59:24;;;;;;;17.40;9.45;;;;;;;10.34;100.00;101690.31;2615079;31;20030;-50
2021/09/21 03:01:53;;;;;;;12.23;9.73;;;;;;;10.34;100.00;101690.31;2615103;31;20031;-52
2021/09/21 03:04:29;;;;;;;12.93;9.15;;;;;;;10.32;100.00;101691.94;2614793;36;20041;-55
2021/09/21 03:07:06;;;;;;;14.68;9.55;;;;;;;10.33;100.00;101693.69;2614750;36;20038;-50
2021/09/21 03:17:32;;;;;;;13.30;9.23;;;;;;;10.33;100.00;101706.50;2614885;36;20430;-52
2021/09/21 03:20:06;;;;;;;13.10;8.73;;;;;;;10.31;100.00;101713.25;2615310;31;20046;-49
2021/09/21 03:22:38;;;;;;;14.23;10.00;;;;;;;10.32;100.00;101719.25;2614247;36;20146;-50
2021/09/21 03:25:11;;;;;;;16.92;9.60;;;;;;;10.33;100.00;101721.84;2614828;31;20061;-50
2021/09/21 03:27:38;;;;;;;13.82;10.55;;;;;;;10.32;100.00;101729.47;2615485;31;20039;-49
2021/09/21 03:30:06;;;;;;;14.73;10.68;;;;;;;10.31;100.00;101730.31;2615491;31;20042;-47
2021/09/21 03:32:33;;;;;;;13.93;9.02;;;;;;;10.31;100.00;101720.94;2615602;31;20533;-49
2021/09/21 03:35:02;;;;;;;19.15;11.30;;;;;;;10.34;100.00;101730.41;2615013;31;20041;-52
2021/09/21 03:37:29;;;;;;;20.83;11.90;;;;;;;10.34;100.00;101727.84;2614463;31;20061;-48
2021/09/21 03:39:57;;;;;;;14.50;10.50;;;;;;;10.31;100.00;101723.50;2614861;31;20488;-47
2021/09/21 03:42:25;;;;;;;15.02;10.57;;;;;;;10.31;100.00;101722.63;2614994;31;20061;-49
2021/09/21 03:44:52;;;;;;;18.35;11.00;;;;;;;10.28;100.00;101725.03;2614579;36;20042;-46
2021/09/21 03:47:19;;;;;;;13.38;10.10;;;;;;;10.24;100.00;101738.47;2614815;36;20571;-47
2021/09/21 03:49:46;;;;;;;13.18;10.27;;;;;;;10.23;100.00;101735.03;2614732;36;20057;-50
2021/09/21 03:52:18;;;;;;;17.23;10.90;;;;;;;10.23;100.00;101734.16;2615197;31;20148;-46
2021/09/21 03:54:45;;;;;;;16.42;10.95;;;;;;;10.23;100.00;101740.16;2614460;31;20038;-47
2021/09/21 03:57:16;;;;;;;18.15;11.10;;;;;;;10.21;100.00;101731.50;2614526;31;20069;-46
2021/09/21 03:59:46;;;;;;;18.48;10.98;;;;;;;10.23;100.00;101736.72;2615150;31;20030;-49
2021/09/21 04:02:14;;;;;;;18.48;11.18;;;;;;;10.22;100.00;101735.84;2615452;31;20457;-47
2021/09/21 04:04:43;;;;;;;15.88;10.43;;;;;;;10.23;100.00;101739.28;2614861;31;20190;-47
2021/09/21 04:07:10;;;;;;;17.20;11.18;;;;;;;10.23;100.00;101737.59;2615128;31;20035;-51
2021/09/21 04:09:37;;;;;;;18.63;11.73;;;;;;;10.20;100.00;101738.31;2614759;36;20034;-48
2021/09/21 04:12:06;;;;;;;15.07;10.45;;;;;;;10.23;100.00;101746.97;2615462;31;20305;-48
2021/09/21 04:14:34;;;;;;;18.30;11.02;;;;;;;10.23;100.00;101746.97;2614637;31;20030;-50
2021/09/21 04:17:01;;;;;;;15.85;10.88;;;;;;;10.24;100.00;101743.59;2614107;36;20049;-48
2021/09/21 04:19:28;;;;;;;17.30;11.55;;;;;;;10.24;100.00;101733.34;2614510;36;20061;-48
2021/09/21 04:21:55;;;;;;;18.30;11.70;;;;;;;10.26;100.00;101734.31;2614077;36;20038;-49
2021/09/21 04:24:25;;;;;;;18.23;11.57;;;;;;;10.27;100.00;101730.97;2614737;31;20039;-47
2021/09/21 04:26:55;;;;;;;14.88;10.80;;;;;;;10.27;100.00;101728.41;2614658;36;20431;-49
2021/09/21 04:29:22;;;;;;;14.43;10.50;;;;;;;10.30;100.00;101728.53;2614405;36;20523;-51
2021/09/21 04:31:52;;;;;;;16.98;11.63;;;;;;;10.33;100.00;101731.22;2614908;31;20037;-47
2021/09/21 04:34:19;;;;;;;19.98;12.40;;;;;;;10.32;100.00;101732.91;2614171;36;20554;-50
2021/09/21 04:36:47;;;;;;;17.73;11.63;;;;;;;10.28;100.00;101743.81;2613984;36;20030;-49
2021/09/21 04:39:14;;;;;;;17.70;11.60;;;;;;;10.32;100.00;101744.84;2614309;36;20061;-48
2021/09/21 04:41:42;;;;;;;17.95;12.07;;;;;;;10.30;100.00;101741.31;2614307;36;20057;-48
2021/09/21 04:44:12;;;;;;;19.48;12.73;;;;;;;10.30;100.00;101743.88;2614965;31;20445;-47
2021/09/21 04:46:39;;;;;;;19.20;12.43;;;;;;;10.30;100.00;101747.31;2614365;36;20095;-46
2021/09/21 04:49:11;;;;;;;20.30;12.13;;;;;;;10.30;100.00;101754.13;2614350;36;20034;-48
2021/09/21 04:51:41;;;;;;;19.38;11.95;;;;;;;10.29;100.00;101758.38;2578440;31;2004381;-47
2021/09/21 04:54:09;;;;;;;18.83;12.50;;;;;;;10.30;100.00;101765.22;2614602;31;20034;-49
2021/09/21 04:56:36;;;;;;;25.25;13.23;;;;;;;10.30;100.00;101770.34;2615347;31;20345;-46
2021/09/21 04:59:04;;;;;;;17.42;12.43;;;;;;;10.30;100.00;101767.78;2614085;36;20058;-49
2021/09/21 05:01:32;;;;;;;21.85;13.27;;;;;;;10.31;100.00;101771.25;2614341;31;20034;-49
2021/09/21 05:03:59;;;;;;;20.00;13.15;;;;;;;10.31;100.00;101774.69;2614600;31;20038;-48
2021/09/21 05:06:26;;;;;;;20.67;12.73;;;;;;;10.32;100.00;101778.13;2614182;31;20045;-50
2021/09/21 05:08:53;;;;;;;20.02;12.43;;;;;;;10.34;100.00;101786.72;2613946;31;20061;-48
2021/09/21 05:11:21;;;;;;;20.13;12.55;;;;;;;10.33;100.00;101779.88;2613348;36;20430;-49
2021/09/21 05:13:48;;;;;;;20.63;13.15;;;;;;;10.34;100.00;101779.06;2615129;31;20038;-48
2021/09/21 05:16:15;;;;;;;18.70;14.23;;;;;;;10.36;100.00;101778.31;2613754;36;20038;-47
2021/09/21 05:18:42;;;;;;;26.30;19.35;;;;;;;10.37;100.00;101779.19;2614118;36;20057;-48
2021/09/21 05:21:09;;;;;;;30.90;21.40;;;;;;;10.38;100.00;101781.81;2615217;31;20042;-47
2021/09/21 05:23:36;;;;;;;27.35;19.95;;;;;;;10.40;100.00;101782.78;2613299;36;20067;-48
2021/09/21 05:26:03;;;;;;;22.77;16.52;;;;;;;10.43;100.00;101792.25;2613876;31;20061;-47
2021/09/21 05:28:31;;;;;;;25.73;16.63;;;;;;;10.44;100.00;101789.78;2613858;31;20034;-49
2021/09/21 05:31:02;;;;;;;25.05;16.23;;;;;;;10.48;100.00;101785.66;2614004;36;20570;-48
2021/09/21 05:33:29;;;;;;;26.90;16.05;;;;;;;10.50;100.00;101786.63;2613644;36;20030;-47
2021/09/21 05:35:56;;;;;;;21.50;14.35;;;;;;;10.51;100.00;101787.50;2614176;36;20038;-49
2021/09/21 05:38:23;;;;;;;21.90;13.55;;;;;;;10.53;100.00;101788.41;2614428;31;20585;-46
2021/09/21 05:40:51;;;;;;;16.90;12.15;;;;;;;10.56;100.00;101788.56;2614740;36;20462;-48
2021/09/21 05:43:18;;;;;;;28.30;18.00;;;;;;;10.60;100.00;101785.31;2614660;36;20038;-51
2021/09/21 05:45:45;;;;;;;23.23;16.63;;;;;;;10.62;100.00;101789.69;2615136;31;20046;-50
2021/09/21 05:48:12;;;;;;;22.40;14.25;;;;;;;10.71;100.00;101794.31;2614132;36;20026;-50
2021/09/21 05:50:40;;;;;;;23.60;14.93;;;;;;;10.78;100.00;101791.22;2613627;36;20039;-46
2021/09/21 05:53:07;;;;;;;18.65;14.38;;;;;;;10.89;100.00;101801.94;2613130;36;20061;-48
2021/09/21 05:55:35;;;;;;;16.52;12.15;;;;;;;11.04;100.00;101801.69;2614222;31;20575;-51
2021/09/21 05:58:02;;;;;;;15.57;12.85;;;;;;;11.40;100.00;101812.56;2614563;31;20226;-48
2021/09/21 06:00:32;;;;;;;14.05;10.48;;;;;;;11.86;100.00;101814.41;2614742;31;20120;-48
2021/09/21 06:03:09;;;;;;;14.98;10.95;;;;;;;11.75;100.00;101807.97;2614247;31;20026;-47
2021/09/21 06:05:37;;;;;;;14.40;10.70;;;;;;;11.71;100.00;101818.13;2614981;31;20120;-49
2021/09/21 06:08:04;;;;;;;13.38;9.88;;;;;;;12.13;100.00;101824.88;2614110;36;20042;-48
2021/09/21 06:10:31;;;;;;;12.07;9.40;;;;;;;11.83;100.00;101820.34;2613704;36;20030;-47
2021/09/21 06:12:58;;;;;;;11.57;9.80;;;;;;;11.73;100.00;101823.28;2614834;36;20581;-48
2021/09/21 06:15:29;;;;;;;12.20;9.30;;;;;;;11.76;100.00;101820.00;2614732;36;20442;-48
2021/09/21 06:18:02;;;;;;;13.20;8.77;;;;;;;11.83;100.00;101815.19;2616541;31;20037;-48
2021/09/21 06:20:36;;;;;;;13.18;8.88;;;;;;;12.06;100.00;101830.56;2616031;31;20061;-46
2021/09/21 06:23:03;;;;;;;15.02;9.40;;;;;;;12.20;100.00;101829.41;2616644;31;20065;-46
2021/09/21 06:25:40;;;;;;;14.38;9.40;;;;;;;12.27;100.00;101830.53;2615582;31;20529;-47
2021/09/21 06:28:10;;;;;;;11.45;8.18;;;;;;;12.63;100.00;101841.25;2615758;36;20039;-47
2021/09/21 06:30:37;;;;;;;13.15;7.43;;;;;;;12.63;100.00;101836.13;2615687;31;20042;-49
2021/09/21 06:33:05;;;;;;;10.57;7.88;;;;;;;12.63;100.00;101841.25;2616650;31;20018;-49
2021/09/21 06:35:32;;;;;;;10.82;8.25;;;;;;;12.79;100.00;101842.66;2615095;36;20041;-50
2021/09/21 06:37:59;;;;;;;9.43;7.15;;;;;;;14.11;100.00;101853.88;2614380;31;20030;-49
2021/09/21 06:40:26;;;;;;;10.27;6.85;;;;;;;13.79;100.00;101850.31;2615010;36;20042;-54
2021/09/21 06:42:53;;;;;;;11.68;7.25;;;;;;;13.97;100.00;101853.47;2614452;36;20057;-47
2021/09/21 06:45:21;;;;;;;9.30;7.28;;;;;;;13.61;100.00;101854.91;2616114;31;20948;-46
2021/09/21 06:47:48;;;;;;;9.48;6.20;;;;;;;13.51;100.00;101858.88;2615403;31;20074;-43
2021/09/21 06:50:16;;;;;;;8.00;6.50;;;;;;;13.28;100.00;101852.09;2615669;31;20478;-51
2021/09/21 06:52:44;;;;;;;10.32;6.43;;;;;;;13.29;100.00;101854.72;2615265;36;20597;-46
2021/09/21 06:55:16;;;;;;;11.90;6.80;;;;;;;13.20;100.00;101854.38;2615578;31;20078;-50
2021/09/21 06:57:52;;;;;;;9.85;6.55;;;;;;;13.25;100.00;101853.72;2615316;36;20085;-43
2021/09/21 07:00:21;;;;;;;10.20;6.82;;;;;;;13.21;100.00;101867.28;2615409;31;20037;-48
2021/09/21 07:02:52;;;;;;;11.70;6.80;;;;;;;13.22;100.00;101873.34;2616346;31;20037;-46
2021/09/21 07:05:22;;;;;;;10.25;5.95;;;;;;;13.04;100.00;101872.69;2615796;36;20030;-51
2021/09/21 07:07:51;;;;;;;6.88;5.80;;;;;;;13.21;100.00;101876.69;2615425;36;20037;-48
2021/09/21 07:10:20;;;;;;;12.90;6.75;;;;;;;13.11;100.00;101874.63;2615426;31;20031;-48
2021/09/21 07:12:48;;;;;;;9.48;6.10;;;;;;;13.21;100.00;101876.69;2618217;31;20053;-48
2021/09/21 07:15:18;;;;;;;7.82;6.00;;;;;;;13.20;100.00;101878.41;2616185;36;20046;-47
2021/09/21 07:17:46;;;;;;;11.23;6.85;;;;;;;13.30;100.00;101874.47;2615899;36;20446;-48
2021/09/21 07:20:13;;;;;;;10.95;6.60;;;;;;;13.35;100.00;101877.19;2616458;31;20034;-49
2021/09/21 07:22:41;;;;;;;11.15;6.93;;;;;;;13.45;100.00;101880.16;2617303;31;20034;-45
2021/09/21 07:27:38;;;;;;;8.18;6.10;;;;;;;13.65;100.00;101878.22;2615920;36;20061;-53
2021/09/21 07:30:06;;;;;;;9.13;6.43;;;;;;;13.69;100.00;101877.47;2617023;31;20041;-54
2021/09/21 07:32:36;;;;;;;11.60;6.20;;;;;;;13.57;100.00;101881.34;2615400;36;20035;-51
2021/09/21 07:35:07;;;;;;;13.23;6.63;;;;;;;13.69;100.00;101892.06;2615326;36;20033;-54
2021/09/21 07:37:35;;;;;;;12.73;6.55;;;;;;;13.60;100.00;101891.75;2614775;36;20027;-50
2021/09/21 07:40:05;;;;;;;12.15;6.68;;;;;;;13.49;100.00;101897.41;2614785;31;20027;-52
2021/09/21 07:42:32;;;;;;;12.15;6.13;;;;;;;13.46;100.00;101902.47;2615355;36;20545;-52
2021/09/21 07:45:00;;;;;;;10.20;6.40;;;;;;;13.38;100.00;101909.06;2614736;36;20030;-55
2021/09/21 07:47:31;;;;;;;10.48;5.90;;;;;;;13.39;100.00;101908.22;2615559;31;20577;-55
2021/09/21 07:49:59;;;;;;;7.60;5.13;;;;;;;13.54;100.00;101900.13;2615618;36;20031;-50
2021/09/21 07:52:27;;;;;;;9.68;5.95;;;;;;;13.70;100.00;101906.66;2615512;36;20034;-49
2021/09/21 07:54:55;;;;;;;9.57;6.00;;;;;;;13.87;100.00;101918.41;2616556;31;20030;-55
2021/09/21 07:57:23;;;;;;;11.98;6.20;;;;;;;14.02;100.00;101913.72;2615464;31;20030;-50
2021/09/21 07:59:56;;;;;;;6.97;5.45;;;;;;;14.37;100.00;101924.22;2616481;31;20054;-52
2021/09/21 08:02:24;;;;;;;7.70;5.68;;;;;;;14.63;100.00;101921.56;2617502;36;20038;-51
2021/09/21 08:04:56;;;;;;;9.77;5.30;;;;;;;14.70;100.00;101923.50;2614742;31;20041;-53
2021/09/21 08:07:28;;;;;;;9.77;5.20;;;;;;;14.58;100.00;101928.31;2614596;36;20042;-54
2021/09/21 08:09:58;;;;;;;10.95;6.05;;;;;;;14.73;100.00;101933.88;2616085;36;20435;-54
2021/09/21 08:12:29;;;;;;;8.65;6.05;;;;;;;14.70;100.00;101936.41;2615343;36;20038;-51
2021/09/21 08:14:57;;;;;;;11.45;5.47;;;;;;;14.91;100.00;101930.97;2615275;36;20030;-51
2021/09/21 08:17:27;;;;;;;7.70;5.70;;;;;;;15.03;100.00;101926.16;2614864;36;20061;-53
2021/09/21 08:19:56;;;;;;;8.05;5.65;;;;;;;15.35;100.00;101934.75;2615466;36;20667;-53
2021/09/21 08:22:25;;;;;;;7.10;5.35;;;;;;;15.59;97.88;101937.06;2614870;36;20030;-52
2021/09/21 08:24:53;;;;;;;10.45;5.50;;;;;;;15.75;97.56;101940.94;2614150;31;20553;-50
2021/09/21 08:27:20;;;;;;;6.78;4.32;;;;;;;14.87;93.90;101950.63;2613163;31;20589;-48
2021/09/21 08:29:47;;;;;;;11.50;4.55;;;;;;;15.04;92.41;101943.38;2614180;31;20029;-52
2021/09/21 08:32:14;;;;;;;8.35;4.25;;;;;;;15.54;90.07;101944.72;2613948;36;20462;-50
2021/09/21 08:34:46;;;;;;;5.15;4.47;;;;;;;15.53;87.63;101944.69;2614351;36;20038;-52
2021/09/21 08:37:13;;;;;;;5.35;4.15;;;;;;;15.88;84.13;101936.94;2578550;31;2004394;-54
2021/09/21 08:39:42;;;;;;;7.47;3.78;;;;;;;16.42;84.63;101937.34;2614991;36;20038;-50
2021/09/21 08:42:15;;;;;;;4.65;3.33;;;;;;;16.33;78.49;101931.97;2616069;31;20118;-51
2021/09/21 08:44:43;;;;;;;5.70;3.55;;;;;;;16.69;73.67;101929.28;2579677;31;2004413;-54
2021/09/21 08:47:10;;;;;;;8.35;4.00;;;;;;;16.99;77.03;101925.56;2614593;36;20162;-53
2021/09/21 08:49:38;;;;;;;6.43;3.65;;;;;;;16.70;77.30;101927.56;2615017;31;20038;-51
2021/09/21 08:52:05;;;;;;;5.70;3.63;;;;;;;16.58;76.93;101922.13;2615404;31;20031;-52
2021/09/21 08:54:33;;;;;;;12.40;3.90;;;;;;;17.02;75.12;101923.06;2615108;31;20039;-51
2021/09/21 08:57:00;;;;;;;7.55;4.75;;;;;;;16.57;80.26;101918.69;2615428;31;20029;-55
2021/09/21 08:59:30;;;;;;;6.45;4.22;;;;;;;17.06;79.39;101919.69;2615027;36;20030;-51
2021/09/21 09:02:05;;;;;;;7.65;3.80;;;;;;;17.16;82.85;101920.72;2615154;36;20042;-50
2021/09/21 09:04:39;;;;;;;7.22;4.57;;;;;;;17.26;78.42;101925.22;2614780;36;20597;-53
2021/09/21 09:07:07;;;;;;;7.45;4.25;;;;;;;17.15;81.33;101924.16;2614417;31;20038;-49
2021/09/21 09:09:39;;;;;;;6.60;4.35;;;;;;;16.53;78.28;101920.31;2614147;36;20026;-50
2021/09/21 09:12:09;;;;;;;7.60;4.18;;;;;;;16.68;79.06;101916.31;2614732;36;20097;-48
2021/09/21 09:14:39;;;;;;;5.30;3.72;;;;;;;17.14;77.69;101925.00;2615120;31;20053;-53
2021/09/21 09:17:12;;;;;;;5.80;4.10;;;;;;;17.17;73.96;101925.94;2614827;36;20027;-56
2021/09/21 09:19:45;;;;;;;5.90;3.90;;;;;;;17.60;70.86;101926.66;2615188;36;20061;-51
2021/09/21 09:22:17;;;;;;;5.82;3.30;;;;;;;17.61;72.16;101927.53;2615310;31;20852;-55
2021/09/21 09:25:06;;;;;;;6.43;4.03;;;;;;;17.71;72.73;101932.03;2578576;36;2004394;-52
2021/09/21 09:27:46;;;;;;;4.75;3.63;;;;;;;17.02;73.18;101923.06;2615344;36;20034;-54
2021/09/21 09:30:25;;;;;;;7.15;3.90;;;;;;;17.28;70.40;101936.47;2579862;31;2004204;-50
2021/09/21 09:32:57;;;;;;;8.88;3.97;;;;;;;17.16;73.92;101924.19;2616936;31;20041;-53
2021/09/21 09:35:33;;;;;;;7.00;3.88;;;;;;;16.87;74.85;101920.16;2615356;36;20034;-52
2021/09/21 09:38:04;;;;;;;8.15;4.20;;;;;;;16.62;76.00;101917.06;2616191;31;20053;-52
2021/09/21 09:40:38;;;;;;;5.90;3.90;;;;;;;17.29;74.04;101915.81;2615454;36;20113;-53
2021/09/21 09:43:05;;;;;;;6.15;4.07;;;;;;;17.61;71.52;101918.06;2616129;31;20057;-55
2021/09/21 09:45:40;;;;;;;6.97;4.85;;;;;;;17.93;72.32;101925.50;2617440;31;21107;-51
2021/09/21 09:48:11;;;;;;;;;;;;;;;17.75;70.41;101919.19;2617724;36;20562;-54
2021/09/21 09:50:44;;;;;;;5.93;3.53;;;;;;;18.26;67.85;101915.63;2618058;31;19946;-51
2021/09/21 09:53:11;;;;;;;4.97;3.78;;;;;;;18.03;67.91;101924.81;2617399;31;20125;-55
2021/09/21 09:55:44;;;;;;;4.43;3.30;;;;;;;17.84;66.66;101915.88;2618110;31;20031;-53
2021/09/21 09:58:16;;;;;;;6.30;4.15;;;;;;;17.66;70.10;101910.38;2581143;36;2004548;-53
2021/09/21 10:00:45;;;;;;;4.28;3.38;;;;;;;17.96;68.04;101916.06;2616882;36;20042;-55
2021/09/21 10:03:13;;;;;;;5.57;3.05;;;;;;;18.03;65.91;101909.25;2617393;36;20546;-53
2021/09/21 10:05:44;;;;;;;5.15;3.38;;;;;;;17.72;68.03;101918.25;2617436;36;20034;-52
2021/09/21 10:08:11;;;;;;;5.18;3.05;;;;;;;17.38;67.02;101922.88;2618856;31;20054;-51
2021/09/21 10:10:42;;;;;;;3.58;2.88;;;;;;;17.25;68.71;101918.31;2616654;36;20161;-51
2021/09/21 10:13:23;;;;;;;6.07;3.33;;;;;;;17.11;71.99;101917.19;2580268;31;2004553;-51
2021/09/21 10:15:56;;;;;;;5.63;2.85;;;;;;;16.85;69.27;101914.09;2616118;36;20037;-52
2021/09/21 10:18:25;;;;;;;7.22;3.83;;;;;;;16.84;74.30;101912.34;2614877;36;20030;-49
2021/09/21 10:21:03;;;;;;;4.20;3.08;;;;;;;16.52;74.54;101921.16;2616119;31;20045;-49
2021/09/21 10:23:35;;;;;;;5.80;3.90;;;;;;;16.44;71.66;101908.91;2616406;36;20037;-48
2021/09/21 10:26:11;;;;;;;6.70;3.05;;;;;;;17.26;70.38;101913.16;2617665;31;20034;-51
2021/09/21 10:28:42;;;;;;;6.20;3.55;;;;;;;18.47;66.85;101912.44;2615888;36;20042;-50
2021/09/21 10:31:17;;;;;;;4.00;3.30;;;;;;;20.68;60.92;101916.94;2616556;36;20034;-49
2021/09/21 10:33:45;;;;;;;3.55;3.25;;;;;;;22.72;53.18;101921.22;2580001;36;2004266;-54
2021/09/21 10:36:19;;;;;;;5.00;3.38;;;;;;;20.78;55.47;101922.19;2616172;36;20030;-49
2021/09/21 10:39:07;;;;;;;4.63;3.10;;;;;;;19.73;58.00;101913.78;2579934;36;2004555;-44
2021/09/21 10:41:53;;;;;;;6.88;3.17;;;;;;;18.44;63.33;101916.69;2616371;36;20129;-44
2021/09/21 10:44:22;;;;;;;3.88;3.10;;;;;;;18.43;63.64;101918.44;2579912;36;2004377;-49
2021/09/21 10:46:56;;;;;;;6.80;3.00;;;;;;;18.26;63.45;101906.97;2616398;31;20438;-52
2021/09/21 10:49:39;;;;;;;3.40;2.92;;;;;;;18.45;62.16;101914.16;2615701;36;20031;-51
2021/09/21 10:52:15;;;;;;;4.70;2.78;;;;;;;17.77;58.70;101920.09;2616339;36;20042;-52
2021/09/21 10:54:52;;;;;;;4.15;2.80;;;;;;;17.34;59.58;101921.06;2579098;31;2004541;-50
2021/09/21 10:57:35;;;;;;;3.47;2.58;;;;;;;17.25;59.16;101920.91;2615185;36;20027;-55
2021/09/21 11:00:09;;;;;;;4.80;2.92;;;;;;;17.86;59.38;101927.13;2616131;31;20609;-52
2021/09/21 11:02:39;;;;;;;4.88;3.17;;;;;;;17.83;57.46;101928.78;2617640;31;20042;-50
2021/09/21 11:05:26;;;;;;;3.55;2.95;;;;;;;19.04;53.87;101937.38;2615116;36;20054;-51
2021/09/21 11:07:56;;;;;;;3.63;2.83;;;;;;;20.36;52.66;101935.84;2579264;31;2004270;-48
2021/09/21 11:10:35;;;;;;;4.53;2.85;;;;;;;22.35;47.09;101939.63;2615175;36;20030;-49
2021/09/21 11:13:09;;;;;;;4.63;2.50;;;;;;;22.59;46.67;101938.66;2615303;31;20037;-50
2021/09/21 11:15:36;;;;;;;4.90;3.30;;;;;;;22.21;46.97;101937.94;2616150;31;20042;-48
2021/09/21 11:18:15;;;;;;;5.43;2.83;;;;;;;19.96;52.34;101939.94;2615586;31;20030;-49
2021/09/21 11:21:05;;;;;;;5.32;3.10;;;;;;;19.66;52.83;101936.25;2615566;36;20041;-51
2021/09/21 11:23:38;;;;;;;3.55;2.75;;;;;;;19.45;51.99;101929.09;2580267;36;2004576;-50
2021/09/21 11:26:09;;;;;;;3.90;3.15;;;;;;;19.24;51.32;101928.91;2614803;36;20582;-51
2021/09/21 11:28:41;;;;;;;5.10;3.28;;;;;;;19.07;54.38;101931.34;2615809;36;20581;-56
2021/09/21 11:31:09;;;;;;;3.28;2.97;;;;;;;18.17;54.30;101937.97;2615267;31;20041;-51
2021/09/21 11:33:41;;;;;;;4.22;3.22;;;;;;;17.58;55.07;101941.31;2615462;31;20034;-52
2021/09/21 11:36:14;;;;;;;4.00;2.85;;;;;;;17.30;57.30;101945.16;2615261;31;20026;-51
2021/09/21 11:38:44;;;;;;;4.35;3.17;;;;;;;16.92;57.57;101940.13;2615038;31;20034;-51
2021/09/21 11:41:12;;;;;;;5.93;2.97;;;;;;;16.57;58.54;101935.91;2614668;36;20035;-50